Latest Weather Observations for Rottnest Island

IDW60801

Issued at 7:03 am WST Saturday 27 August 2016 (issued every 30 minutes, with the page automatically refreshed every 10 minutes)

About weather observations | Map of weather stations | Latest weather observations for WA | Other Formats
Station Details ID: 009193 Name: ROTTNEST ISLAND Lat: -32.01 Lon: 115.50 Height: 43.1 m
Data from the previous 72 hours. | See also: Recent months at Rottnest Island
Date/Time
WST
Temp
°C
App
Temp
°C
Dew
Point
°C
Rel
Hum
%
Delta-T
°C
Wind Press
QNH
hPa
Press
MSL
hPa
Rain since
9am
mm
Dir  Spd
km/h
Gust
km/h
Spd
kts
Gust
kts
27/07:00am 13.8 5.6 8.2 69 2.8 WNW 41 59 22 32 1002.3 1002.3 20.2
27/06:30am 14.6 6.4 6.4 58 4.0 WNW 39 56 21 30 1002.2 1002.2 20.2
27/06:00am 14.5 7.0 8.0 65 3.3 W 37 50 20 27 1002.4 1002.4 20.2
27/05:36am 14.3 6.1 8.3 67 3.0 W 41 59 22 32 1001.5 1001.5 20.2
27/05:30am 14.5 5.5 8.7 68 2.9 WNW 46 59 25 32 1002.7 1002.7 20.2
27/05:14am 14.4 9.3 9.2 71 2.7 WNW 26 50 14 27 1002.5 1002.5 20.2
27/05:00am 12.8 7.1 9.8 82 1.5 NW 30 43 16 23 1002.3 1002.3 20.2
27/04:38am 12.7 4.1 9.0 78 1.9 NW 44 65 24 35 1001.8 1001.8 19.6
27/04:30am 13.1 4.7 9.5 79 1.8 NW 44 57 24 31 1002.4 1002.4 18.6
27/04:21am 13.4 5.9 9.6 78 1.9 NNW 39 57 21 31 1002.8 1002.8 18.6
27/04:00am 13.1 5.9 9.0 76 2.1 NW 37 46 20 25 1002.2 1002.2 18.4
27/03:30am 12.8 5.7 7.9 72 2.4 NW 35 43 19 23 1002.4 1002.4 18.0
27/03:00am 13.0 6.0 8.5 74 2.3 NW 35 48 19 26 1002.4 1002.4 17.8
27/02:30am 12.7 5.3 9.9 83 1.4 WNW 39 52 21 28 1003.0 1003.0 17.6
27/02:00am 13.2 8.3 11.4 89 1.0 WNW 28 43 15 23 1003.5 1003.5 16.4
27/01:30am 12.7 9.0 11.4 92 0.7 W 22 33 12 18 1003.6 1003.6 16.0
27/01:00am 13.0 9.5 12.1 94 0.5 WSW 22 35 12 19 1004.9 1004.9 14.6
27/12:30am 12.9 8.5 11.8 93 0.6 WSW 26 35 14 19 1004.4 1004.4 12.6
27/12:00am 13.2 9.4 12.4 95 0.4 WSW 24 32 13 17 1004.9 1004.9 11.2
 
Date/Time
WST
Temp
°C
App
Temp
°C
Dew
Point
°C
Rel
Hum
%
Delta-T
°C
Wind Press
QNH
hPa
Press
MSL
hPa
Rain since
9am
mm
Dir  Spd
km/h
Gust
km/h
Spd
kts
Gust
kts
26/11:30pm 13.2 8.6 12.4 95 0.4 WSW 28 35 15 19 1004.1 1004.1 10.2
26/11:00pm 13.4 8.1 12.6 95 0.4 WSW 32 46 17 25 1005.6 1005.6 9.0
26/10:58pm 13.5 9.1 12.9 96 0.3 WSW 28 46 15 25 1005.7 1005.7 8.8
26/10:30pm 13.5 9.5 12.9 96 0.3 WSW 26 35 14 19 1005.5 1005.5 7.0
26/10:00pm 13.0 7.5 12.4 96 0.3 WSW 33 43 18 23 1005.1 1005.1 7.0
26/09:30pm 13.0 6.3 12.2 95 0.4 WSW 39 57 21 31 1006.7 1006.7 5.8
26/09:00pm 13.7 7.6 13.1 96 0.3 WSW 37 56 20 30 1006.5 1006.5 4.6
26/08:30pm 13.8 6.5 13.3 97 0.3 WSW 44 61 24 33 1006.0 1006.0 4.4
26/08:00pm 14.8 8.6 12.8 88 1.1 NW 37 50 20 27 1005.5 1005.5 0.4
26/07:59pm 15.2 9.1 13.1 87 1.2 NNW 37 54 20 29 1005.2 1005.2 0.2
26/07:55pm 18.2 12.6 16.5 90 1.0 NNW 41 59 22 32 1005.0 1005.0 0.2
26/07:30pm 18.3 12.3 16.5 89 1.1 N 43 54 23 29 1004.6 1004.6 0.2
26/07:00pm 18.1 11.0 16.1 88 1.2 NNW 48 63 26 34 1005.0 1005.0 0.2
26/06:46pm 17.9 11.5 15.9 88 1.2 NNW 44 65 24 35 1005.2 1005.2 0.2
26/06:30pm 17.5 11.8 15.1 86 1.4 NNW 39 48 21 26 1005.6 1005.6 0.2
26/06:00pm 17.3 9.5 15.1 87 1.3 NNW 50 59 27 32 1005.8 1005.8 0.2
26/05:30pm 16.8 7.5 14.3 85 1.4 NNW 56 72 30 39 1005.7 1005.7 0.2
26/05:28pm 16.8 7.0 14.3 85 1.4 NNW 59 87 32 47 1005.6 1005.6 0.2
26/05:18pm 17.0 5.3 14.8 87 1.3 NNW 70 91 38 49 1005.1 1005.1 0.2
26/05:12pm 17.6 8.5 14.7 83 1.7 NNW 56 87 30 47 1004.9 1004.9 0.2
26/05:09pm 18.1 10.6 15.0 82 1.8 NNW 48 72 26 39 1005.3 1005.3 0.2
26/05:00pm 17.6 10.2 14.3 81 1.9 N 46 61 25 33 1005.5 1005.5 0.0
26/04:30pm 18.2 11.1 13.5 74 2.7 N 43 54 23 29 1005.6 1005.6 0.0
26/04:00pm 18.4 11.3 13.5 73 2.8 N 43 54 23 29 1006.1 1006.1 0.0
26/03:30pm 18.3 11.5 13.2 72 2.9 N 41 54 22 29 1006.4 1006.4 0.0
26/03:00pm 18.8 11.6 11.9 64 3.8 N 41 52 22 28 1006.5 1006.5 0.0
26/02:30pm 19.1 10.4 10.1 56 4.8 N 46 57 25 31 1006.8 1006.8 0.0
26/02:00pm 18.7 10.7 10.5 59 4.4 N 43 50 23 27 1007.0 1007.0 0.0
26/01:30pm 18.5 11.0 9.3 55 4.8 N 39 50 21 27 1007.5 1007.5 0.0
26/01:00pm 18.1 10.5 8.9 55 4.8 N 39 50 21 27 1008.2 1008.1 0.0
26/12:30pm 17.8 9.8 8.9 56 4.6 N 41 48 22 26 1009.0 1008.9 0.0
26/12:00pm 18.7 11.2 9.5 55 4.9 N 39 50 21 27 1009.7 1009.6 0.0
26/11:30am 17.8 10.5 8.6 55 4.8 N 37 46 20 25 1010.1 1010.0 0.0
26/11:00am 17.6 8.9 7.6 52 5.1 N 43 54 23 29 1010.2 1010.1 0.0
26/10:30am 17.6 8.8 7.4 51 5.1 N 43 54 23 29 1010.5 1010.4 0.0
26/10:00am 17.4 9.5 8.0 54 4.8 N 39 50 21 27 1011.2 1011.1 0.0
26/09:30am 16.3 8.3 7.3 55 4.5 N 39 52 21 28 1011.7 1011.6 0.0
26/09:00am 16.2 7.8 7.2 55 4.5 N 41 54 22 29 1012.0 1011.9 0.0
26/08:30am 16.1 7.3 7.1 55 4.5 N 43 52 23 28 1012.1 1012.0 0.0
26/08:11am 15.9 8.7 7.7 58 4.1 N 35 54 19 29 1012.4 1012.3 0.0
26/08:00am 16.0 8.3 7.0 55 4.5 N 37 50 20 27 1012.0 1011.9 0.0
26/07:30am 15.7 7.1 6.4 54 4.5 N 41 52 22 28 1011.8 1011.7 0.0
26/07:00am 15.5 7.4 6.8 56 4.3 N 39 54 21 29 1012.2 1012.1 0.0
26/06:30am 15.7 6.8 6.7 55 4.4 NNE 43 57 23 31 1011.9 1011.8 0.0
26/06:00am 15.7 6.0 5.9 52 4.7 NNE 46 57 25 31 1011.8 1011.7 0.0
26/05:39am 15.8 6.5 5.7 51 4.9 NNE 44 65 24 35 1011.5 1011.4 0.0
26/05:30am 15.9 6.8 6.6 54 4.6 NNE 44 57 24 31 1011.7 1011.6 0.0
26/05:00am 16.0 7.3 5.9 51 4.9 NNE 41 54 22 29 1012.2 1012.1 0.0
26/04:30am 16.1 7.8 6.0 51 4.9 NNE 39 52 21 28 1012.5 1012.4 0.0
26/04:00am 15.9 8.5 6.6 54 4.6 NNE 35 50 19 27 1012.7 1012.6 0.0
26/03:30am 16.0 8.6 6.7 54 4.6 NNE 35 48 19 26 1012.8 1012.7 0.0
26/03:00am 15.8 7.9 6.3 53 4.6 NNE 37 46 20 25 1013.1 1013.0 0.0
26/02:30am 15.9 7.6 6.1 52 4.8 NNE 39 54 21 29 1013.5 1013.4 0.0
26/02:00am 15.8 8.9 7.3 57 4.2 NNE 33 43 18 23 1014.1 1014.0 0.0
26/01:30am 15.7 8.9 6.7 55 4.4 NNE 32 44 17 24 1014.8 1014.7 0.0
26/01:00am 15.8 9.0 6.8 55 4.4 NE 32 43 17 23 1015.3 1015.2 0.0
26/12:30am 15.7 10.1 7.0 56 4.3 NE 26 35 14 19 1015.8 1015.7 0.0
26/12:00am 15.5 9.8 6.8 56 4.3 NE 26 35 14 19 1016.0 1015.9 0.0
 
Date/Time
WST
Temp
°C
App
Temp
°C
Dew
Point
°C
Rel
Hum
%
Delta-T
°C
Wind Press
QNH
hPa
Press
MSL
hPa
Rain since
9am
mm
Dir  Spd
km/h
Gust
km/h
Spd
kts
Gust
kts
25/11:30pm 15.3 9.9 6.3 55 4.4 NE 24 32 13 17 1016.2 1016.1 0.0
25/11:00pm 15.1 9.6 6.1 55 4.3 NE 24 33 13 18 1016.7 1016.6 0.0
25/10:30pm 15.2 10.2 6.5 56 4.2 ENE 22 32 12 17 1017.4 1017.4 0.0
25/10:00pm 15.2 10.6 6.7 57 4.1 ENE 20 28 11 15 1017.9 1017.9 0.0
25/09:30pm 15.4 10.9 6.9 57 4.2 ENE 20 26 11 14 1018.1 1018.1 0.0
25/09:00pm 15.2 11.3 7.3 59 3.9 ENE 17 24 9 13 1018.1 1018.1 0.0
25/08:30pm 15.5 11.1 7.3 58 4.1 ENE 20 30 11 16 1018.2 1018.2 0.0
25/08:00pm 15.8 11.3 7.1 56 4.3 ENE 20 26 11 14 1018.2 1018.2 0.0
25/07:30pm 16.1 11.6 6.8 54 4.6 ENE 20 32 11 17 1018.3 1018.3 0.0
25/07:00pm 16.1 11.6 7.1 55 4.5 ENE 20 28 11 15 1018.2 1018.2 0.0
25/06:30pm 16.2 11.3 6.9 54 4.6 ENE 22 30 12 16 1017.9 1017.9 0.0
25/06:00pm 16.4 12.0 7.3 55 4.5 ENE 20 28 11 15 1018.2 1018.2 0.0
25/05:30pm 16.6 11.8 7.5 55 4.6 ENE 22 30 12 16 1018.1 1018.1 0.0
25/05:00pm 16.9 11.4 6.1 49 5.3 NE 24 32 13 17 1017.9 1017.9 0.0
25/04:30pm 16.9 12.5 7.3 53 4.8 ENE 20 28 11 15 1018.1 1018.1 0.0
25/04:00pm 17.2 12.6 6.7 50 5.2 NE 20 30 11 16 1018.9 1018.9 0.0
25/03:30pm 17.5 12.2 6.7 49 5.4 ENE 24 32 13 17 1018.8 1018.8 0.0
25/03:00pm 17.4 12.4 6.3 48 5.4 NE 22 28 12 15 1019.1 1019.1 0.0
25/02:30pm 17.7 13.0 5.9 46 5.8 NE 20 28 11 15 1019.5 1019.5 0.0
25/02:00pm 17.2 12.4 5.8 47 5.5 ENE 20 30 11 16 1020.1 1020.1 0.0
25/01:30pm 16.5 11.4 5.8 49 5.2 ENE 22 28 12 15 1020.7 1020.7 0.0
25/01:00pm 16.5 11.1 6.3 51 5.0 NE 24 35 13 19 1021.2 1021.2 0.0
25/12:30pm 16.0 10.1 5.9 51 4.9 ENE 26 35 14 19 1021.7 1021.7 0.0
25/12:00pm 15.7 9.9 6.4 54 4.5 ENE 26 37 14 20 1022.3 1022.3 0.0
25/11:30am 14.9 8.7 6.2 56 4.2 ENE 28 39 15 21 1023.0 1023.0 0.0
25/11:00am 14.2 7.2 6.1 58 3.9 ENE 32 41 17 22 1023.3 1023.3 0.0
25/10:30am 13.7 6.7 6.1 60 3.6 NE 32 43 17 23 1023.9 1023.9 0.0
25/10:00am 13.9 7.1 6.7 62 3.5 NE 32 44 17 24 1024.0 1024.0 0.0
25/09:30am 12.7 5.8 6.3 65 3.0 NE 32 46 17 25 1024.2 1024.2 0.0
25/09:00am 12.1 5.1 6.2 67 2.8 NE 32 46 17 25 1024.3 1024.3 0.0
25/08:30am 11.6 4.4 6.1 69 2.6 NE 33 50 18 27 1024.4 1024.4 0.0
25/08:15am 11.3 4.1 6.0 70 2.5 NE 33 52 18 28 1024.3 1024.3 0.0
25/08:00am 11.1 3.5 5.8 70 2.4 ENE 35 48 19 26 1024.3 1024.3 0.0
25/07:30am 10.7 3.1 5.7 71 2.3 ENE 35 46 19 25 1024.2 1024.2 0.0
25/07:00am 10.5 2.8 5.5 71 2.3 ENE 35 48 19 26 1023.9 1023.9 0.0
25/06:30am 10.2 3.5 5.4 72 2.2 ENE 30 43 16 23 1023.6 1023.6 0.0
25/06:00am 10.2 2.4 5.0 70 2.3 ENE 35 48 19 26 1023.4 1023.4 0.0
25/05:37am 10.2 3.4 5.0 70 2.4 ENE 30 50 16 27 1023.3 1023.3 0.0
25/05:30am 10.3 4.3 5.1 70 2.4 ENE 26 43 14 23 1023.3 1023.3 0.0
25/05:21am 10.2 3.7 4.8 69 2.4 ENE 28 46 15 25 1023.2 1023.2 0.0
25/05:00am 10.6 3.7 4.7 67 2.6 ENE 30 44 16 24 1023.1 1023.1 0.0
25/04:30am 10.8 4.3 4.9 67 2.7 ENE 28 43 15 23 1022.9 1022.9 0.0
25/04:00am 10.7 4.2 4.8 67 2.7 ENE 28 46 15 25 1022.9 1022.9 0.0
25/03:57am 10.7 4.3 5.0 68 2.6 ENE 28 46 15 25 1022.9 1022.9 0.0
25/03:30am 10.9 3.5 5.0 67 2.7 ENE 33 44 18 24 1023.1 1023.1 0.0
25/03:00am 10.8 3.6 4.9 67 2.7 ENE 32 43 17 23 1023.3 1023.3 0.0
25/02:30am 10.6 5.3 4.9 68 2.6 ENE 22 33 12 18 1023.5 1023.5 0.0
25/02:00am 10.8 4.7 4.9 67 2.7 E 26 37 14 20 1023.8 1023.8 0.0
25/01:30am 10.8 5.1 5.1 68 2.6 E 24 32 13 17 1023.9 1023.9 0.0
25/01:00am 10.8 5.1 5.1 68 2.6 E 24 35 13 19 1024.0 1024.0 0.0
25/12:30am 11.1 5.4 5.0 66 2.8 E 24 32 13 17 1024.0 1024.0 0.0
25/12:00am 11.5 5.8 4.7 63 3.1 E 24 35 13 19 1024.1 1024.1 0.0
 
Date/Time
WST
Temp
°C
App
Temp
°C
Dew
Point
°C
Rel
Hum
%
Delta-T
°C
Wind Press
QNH
hPa
Press
MSL
hPa
Rain since
9am
mm
Dir  Spd
km/h
Gust
km/h
Spd
kts
Gust
kts
24/11:30pm 11.6 6.8 4.8 63 3.1 ESE 19 28 10 15 1024.4 1024.4 0.0
24/11:00pm 12.0 7.2 4.7 61 3.3 ESE 19 28 10 15 1024.5 1024.5 0.0
24/10:30pm 12.6 7.5 4.1 56 3.8 E 20 32 11 17 1024.7 1024.7 0.0
24/10:00pm 12.4 7.6 4.4 58 3.6 E 19 24 10 13 1024.9 1024.9 0.0
24/09:30pm 12.5 7.6 4.0 56 3.8 E 19 24 10 13 1025.0 1025.0 0.0
24/09:00pm 12.6 8.1 4.1 56 3.8 E 17 24 9 13 1024.8 1024.8 0.0
24/08:30pm 13.1 7.5 3.7 53 4.2 E 22 30 12 16 1024.9 1024.9 0.0
24/08:00pm 13.3 7.3 3.4 51 4.4 E 24 32 13 17 1024.7 1024.7 0.0
24/07:30pm 13.4 7.8 3.5 51 4.5 E 22 32 12 17 1024.9 1024.9 0.0
24/07:00pm 13.6 8.3 3.1 49 4.7 E 20 28 11 15 1024.7 1024.7 0.0
24/06:30pm 13.7 9.0 3.2 49 4.7 E 17 24 9 13 1024.4 1024.4 0.0
24/06:00pm 13.7 9.0 3.2 49 4.7 E 17 22 9 12 1024.1 1024.1 0.0
24/05:30pm 13.9 10.8 3.7 50 4.6 SE 9 11 5 6 1023.8 1023.8 0.0
24/05:00pm 13.9 9.8 4.2 52 4.4 SSE 15 19 8 10 1023.5 1023.5 0.0
24/04:30pm 14.2 10.3 3.4 48 4.9 SSE 13 17 7 9 1023.5 1023.5 0.0
24/04:00pm 14.3 9.9 2.5 45 5.2 SSE 15 17 8 9 1023.6 1023.6 0.0
24/03:30pm 14.2 9.8 2.5 45 5.2 S 15 20 8 11 1023.5 1023.5 0.0
24/03:00pm 14.4 9.7 2.9 46 5.1 S 17 20 9 11 1023.6 1023.6 0.0
24/02:30pm 14.2 9.1 2.8 46 5.1 SSE 19 24 10 13 1023.6 1023.6 0.0
24/02:00pm 14.6 9.7 2.2 43 5.5 ENE 17 26 9 14 1023.8 1023.8 0.0
24/01:30pm 14.1 9.5 1.7 43 5.4 ENE 15 20 8 11 1024.3 1024.3 0.0
24/01:00pm 14.6 10.4 1.8 42 5.6 ENE 13 24 7 13 1024.6 1024.6 0.0
24/12:30pm 13.8 8.7 0.8 41 5.5 E 17 24 9 13 1025.1 1025.1 0.0
24/12:00pm 13.4 7.8 1.4 44 5.1 E 20 28 11 15 1025.4 1025.4 0.0
24/11:30am 13.0 7.0 1.0 44 5.1 ENE 22 32 12 17 1025.8 1025.8 0.0
24/11:00am 12.9 6.9 1.3 45 4.9 ENE 22 33 12 18 1025.8 1025.8 0.0
24/10:30am 12.2 5.6 2.1 50 4.4 ENE 26 35 14 19 1026.1 1026.1 0.0
24/10:00am 11.9 5.1 2.9 54 3.9 ENE 28 37 15 20 1026.2 1026.2 0.0
24/09:30am 11.3 5.2 2.9 56 3.7 E 24 33 13 18 1026.3 1026.3 0.0
24/09:00am 10.5 3.6 2.8 59 3.3 ENE 28 37 15 20 1026.2 1026.2 0.0
24/08:30am 10.5 4.4 2.6 58 3.4 ENE 24 33 13 18 1026.1 1026.1 0.0
24/08:00am 10.0 3.5 2.8 61 3.1 E 26 35 14 19 1025.6 1025.6 0.0
24/07:30am 9.6 3.5 2.7 62 2.9 E 24 35 13 19 1025.3 1025.3 0.0

Other Formats:

Comma delimited format used in spreadsheet applications
http://www.bom.gov.au/fwo/IDW60801/IDW60801.94602.axf

JavaScript Object Notation format (JSON) in row-major order
http://www.bom.gov.au/fwo/IDW60801/IDW60801.94602.json